createdAt,value
2023-03-24T00:00:24.843Z,94707.66
2023-03-24T00:03:02.579Z,94707.69
2023-03-24T00:05:50.848Z,94704.41
2023-03-24T00:08:30.866Z,94707.88
2023-03-24T00:11:18.865Z,94715.63
2023-03-24T00:13:58.834Z,94707.16
2023-03-24T00:16:48.865Z,94709.78
2023-03-24T00:19:30.852Z,94703.84
2023-03-24T00:22:27.852Z,94697.97
2023-03-24T00:25:17.868Z,94699.75
2023-03-24T00:27:58.866Z,94704.09
2023-03-24T00:30:48.959Z,94699.06
2023-03-24T00:33:28.915Z,94694.00
2023-03-24T00:36:20.937Z,94689.78
2023-03-24T00:39:05.715Z,94696.63
2023-03-24T00:42:02.883Z,94687.28
2023-03-24T00:44:51.899Z,94686.50
2023-03-24T00:47:32.837Z,94686.56
2023-03-24T00:50:23.882Z,94688.31
2023-03-24T00:53:04.894Z,94683.28
2023-03-24T00:55:55.892Z,94685.03
2023-03-24T00:58:40.868Z,94682.56
2023-03-24T01:01:28.855Z,94681.72
2023-03-24T01:04:03.026Z,94680.06
2023-03-24T01:06:51.873Z,94679.28
2023-03-24T01:09:25.069Z,94670.84
2023-03-24T01:12:11.891Z,94674.25
2023-03-24T01:14:44.980Z,94675.13
2023-03-24T01:17:31.907Z,94669.16
2023-03-24T01:20:14.881Z,94669.13
2023-03-24T01:23:08.891Z,94681.03
2023-03-24T01:25:57.926Z,94674.25
2023-03-24T01:28:32.208Z,94671.69
2023-03-24T01:31:18.892Z,94675.06
2023-03-24T01:33:51.974Z,94674.25
2023-03-24T01:36:38.901Z,94670.06
2023-03-24T01:39:15.550Z,94665.88
2023-03-24T01:42:02.885Z,94668.53
2023-03-24T01:44:36.030Z,94671.97
2023-03-24T01:47:23.968Z,94672.03
2023-03-24T01:50:03.178Z,94667.84
2023-03-24T01:52:49.886Z,94667.03
2023-03-24T01:55:25.017Z,94667.91
2023-03-24T01:58:14.030Z,94657.75
2023-03-24T02:00:48.062Z,94656.97
2023-03-24T02:03:40.939Z,94656.09
2023-03-24T02:06:21.946Z,94658.69
2023-03-24T02:09:16.902Z,94653.59
2023-03-24T02:12:03.907Z,94654.44
2023-03-24T02:14:37.033Z,94654.50
2023-03-24T02:17:27.940Z,94662.97
2023-03-24T02:20:17.169Z,94663.00
2023-03-24T02:23:23.954Z,94659.69
2023-03-24T02:26:36.030Z,94658.03
2023-03-24T02:29:25.918Z,94655.59
2023-03-24T02:32:08.908Z,94653.94
2023-03-24T02:35:31.914Z,94649.75
2023-03-24T02:38:47.923Z,94660.84
2023-03-24T02:42:03.041Z,94646.41
2023-03-24T02:45:13.947Z,94646.47
2023-03-24T02:48:25.913Z,94650.75
2023-03-24T02:51:41.146Z,94649.91
2023-03-24T02:54:49.060Z,94646.53
2023-03-24T02:57:45.904Z,94645.72
2023-03-24T03:00:49.992Z,94646.56
2023-03-24T03:03:45.954Z,94645.72
2023-03-24T03:06:22.238Z,94643.19
2023-03-24T03:09:14.985Z,94645.72
2023-03-24T03:11:59.942Z,94638.97
2023-03-24T03:15:01.942Z,94649.22
2023-03-24T03:18:01.957Z,94650.13
2023-03-24T03:20:56.962Z,94640.00
2023-03-24T03:23:36.516Z,94645.97
2023-03-24T03:26:29.959Z,94643.50
2023-03-24T03:29:16.046Z,94641.84
2023-03-24T03:32:14.012Z,94646.94
2023-03-24T03:34:57.145Z,94640.19
2023-03-24T03:38:14.945Z,94643.63
2023-03-24T03:40:56.128Z,94647.91
2023-03-24T03:43:42.965Z,94652.16
2023-03-24T03:46:16.597Z,94647.13
2023-03-24T03:49:02.953Z,94646.41
2023-03-24T03:51:43.122Z,94642.22
2023-03-24T03:54:32.946Z,94651.56
2023-03-24T03:57:07.131Z,94650.75
2023-03-24T03:59:54.096Z,94649.97
2023-03-24T04:02:39.183Z,94643.22
2023-03-24T04:05:43.153Z,94644.09
2023-03-24T04:08:50.950Z,94637.34
2023-03-24T04:11:53.953Z,94632.28
2023-03-24T04:14:52.951Z,94630.63
2023-03-24T04:18:05.103Z,94629.84
2023-03-24T04:21:04.123Z,94625.63
2023-03-24T04:24:33.993Z,94628.25
2023-03-24T04:27:52.954Z,94627.44
2023-03-24T04:30:48.975Z,94628.28
2023-03-24T04:33:39.182Z,94621.59
2023-03-24T04:36:38.975Z,94624.13
2023-03-24T04:39:12.862Z,94621.56
2023-03-24T04:42:03.961Z,94626.63
2023-03-24T04:44:47.971Z,94629.09
2023-03-24T04:47:46.008Z,94625.63
2023-03-24T04:50:44.969Z,94619.66
2023-03-24T04:53:18.208Z,94616.16
2023-03-24T04:56:36.104Z,94615.22
2023-03-24T04:59:09.243Z,94611.75
2023-03-24T05:01:58.967Z,94613.38
2023-03-24T05:04:43.002Z,94618.41
2023-03-24T05:07:36.961Z,94624.22
2023-03-24T05:10:24.997Z,94619.06
2023-03-24T05:13:04.979Z,94630.00
2023-03-24T05:15:59.001Z,94627.38
2023-03-24T05:18:45.988Z,94626.44
2023-03-24T05:21:26.962Z,94618.66
2023-03-24T05:24:20.978Z,94620.31
2023-03-24T05:27:07.989Z,94616.88
2023-03-24T05:29:41.100Z,94623.56
2023-03-24T05:32:28.005Z,94623.47
2023-03-24T05:35:07.996Z,94629.38
2023-03-24T05:38:02.011Z,94631.78
2023-03-24T05:40:48.985Z,94632.06
2023-03-24T05:43:22.084Z,94624.78
2023-03-24T05:46:09.061Z,94626.88
2023-03-24T05:48:49.008Z,94622.94
2023-03-24T05:51:42.997Z,94612.16
2023-03-24T05:54:36.986Z,94614.97
2023-03-24T05:57:24.986Z,94617.03
2023-03-24T05:59:58.207Z,94611.63
2023-03-24T06:02:46.116Z,94620.78
2023-03-24T06:05:20.447Z,94616.31
2023-03-24T06:08:08.007Z,94618.78
2023-03-24T06:10:41.158Z,94619.56
2023-03-24T06:13:28.002Z,94616.13
2023-03-24T06:16:03.610Z,94617.00
2023-03-24T06:18:59.026Z,94622.03
2023-03-24T06:21:39.016Z,94628.81
2023-03-24T06:24:26.021Z,94632.22
2023-03-24T06:27:10.010Z,94632.22
2023-03-24T06:29:57.011Z,94636.47
2023-03-24T06:32:31.186Z,94637.34
2023-03-24T06:35:18.063Z,94642.47
2023-03-24T06:37:58.014Z,94645.00
2023-03-24T06:40:52.039Z,94645.06
2023-03-24T06:43:46.013Z,94643.41
2023-03-24T06:46:33.060Z,94651.91
2023-03-24T06:49:13.020Z,94636.59
2023-03-24T06:52:01.012Z,94647.78
2023-03-24T06:54:34.152Z,94642.69
2023-03-24T06:57:21.042Z,94647.00
2023-03-24T07:00:01.045Z,94645.28
2023-03-24T07:02:55.076Z,94654.59
2023-03-24T07:05:50.027Z,94654.59
2023-03-24T07:08:38.007Z,94654.59
2023-03-24T07:11:32.029Z,94653.69
2023-03-24T07:14:19.057Z,94651.88
2023-03-24T07:16:59.060Z,94660.31
2023-03-24T07:19:53.077Z,94656.81
2023-03-24T07:22:47.046Z,94649.94
2023-03-24T07:25:41.034Z,94654.97
2023-03-24T07:28:35.049Z,94646.34
2023-03-24T07:31:22.081Z,94649.63
2023-03-24T07:34:02.193Z,94641.81
2023-03-24T07:36:49.035Z,94641.69
2023-03-24T07:39:22.213Z,94640.72
2023-03-24T07:42:10.998Z,94631.16
2023-03-24T07:44:52.046Z,94634.41
2023-03-24T07:47:46.077Z,94631.63
2023-03-24T07:50:40.044Z,94624.50
2023-03-24T07:53:34.157Z,94628.47
2023-03-24T07:56:22.064Z,94634.19
2023-03-24T07:58:55.235Z,94629.78
2023-03-24T08:01:44.149Z,94617.66
2023-03-24T08:04:20.272Z,94619.13
2023-03-24T08:07:07.075Z,94623.16
2023-03-24T08:09:40.148Z,94623.75
2023-03-24T08:12:27.072Z,94625.25
2023-03-24T08:15:07.062Z,94613.94
2023-03-24T08:18:03.089Z,94616.25
2023-03-24T08:20:57.112Z,94617.00
2023-03-24T08:23:51.056Z,94622.69
2023-03-24T08:26:42.093Z,94621.75
2023-03-24T08:29:25.077Z,94625.94
2023-03-24T08:32:19.074Z,94619.88
2023-03-24T08:35:06.101Z,94622.31
2023-03-24T08:37:39.190Z,94616.16
2023-03-24T08:40:30.077Z,94611.72
2023-03-24T08:43:08.557Z,94605.63
2023-03-24T08:45:55.109Z,94602.94
2023-03-24T08:48:35.082Z,94601.00
2023-03-24T08:51:31.148Z,94598.88
2023-03-24T08:54:19.103Z,94595.84
2023-03-24T08:56:52.265Z,94591.03
2023-03-24T08:59:39.123Z,94587.69
2023-03-24T09:02:12.216Z,94587.81
2023-03-24T09:05:01.127Z,94588.09
2023-03-24T09:07:34.238Z,94591.16
2023-03-24T09:10:22.122Z,94578.06
2023-03-24T09:13:02.084Z,94572.88
2023-03-24T09:16:01.075Z,94574.63
2023-03-24T09:18:55.101Z,94570.31
2023-03-24T09:21:49.073Z,94569.34
2023-03-24T09:24:43.115Z,94566.78
2023-03-24T09:27:32.934Z,94562.47
2023-03-24T09:30:13.093Z,94552.13
2023-03-24T09:33:07.142Z,94557.97
2023-03-24T09:36:00.562Z,94557.88
2023-03-24T09:38:42.095Z,94551.53
2023-03-24T09:41:44.089Z,94549.50
2023-03-24T09:44:55.121Z,94549.44
2023-03-24T09:47:52.133Z,94545.78
2023-03-24T09:51:12.239Z,94545.34
2023-03-24T09:54:06.109Z,94527.78
2023-03-24T09:56:54.138Z,94526.53
2023-03-24T09:59:45.152Z,94516.06
2023-03-24T10:02:37.172Z,94515.72
2023-03-24T10:05:19.249Z,94504.28
2023-03-24T10:08:29.447Z,94496.28
2023-03-24T10:11:31.115Z,94492.72
2023-03-24T10:14:42.124Z,94492.69
2023-03-24T10:17:59.283Z,94490.81
2023-03-24T10:20:54.141Z,94481.09
2023-03-24T10:23:43.290Z,94485.97
2023-03-24T10:26:44.250Z,94488.09
2023-03-24T10:29:36.404Z,94476.69
2023-03-24T10:32:27.160Z,94477.13
2023-03-24T10:35:16.168Z,94473.97
2023-03-24T10:38:08.125Z,94478.59
2023-03-24T10:40:48.124Z,94481.50
2023-03-24T10:43:43.174Z,94484.56
2023-03-24T10:46:35.190Z,94473.91
2023-03-24T10:49:42.149Z,94468.38
2023-03-24T10:52:38.089Z,94472.88
2023-03-24T10:55:28.169Z,94467.34
2023-03-24T10:58:04.271Z,94465.06
2023-03-24T11:00:52.267Z,94458.59
2023-03-24T11:03:36.275Z,94461.00
2023-03-24T11:06:26.140Z,94457.97
2023-03-24T11:09:33.163Z,94447.19
2023-03-24T11:12:41.151Z,94450.75
2023-03-24T11:15:37.244Z,94446.19
2023-03-24T11:18:19.543Z,94458.72
2023-03-24T11:21:11.153Z,94453.00
2023-03-24T11:23:45.706Z,94448.28
2023-03-24T11:26:42.224Z,94448.69
2023-03-24T11:29:28.074Z,94433.03
2023-03-24T11:32:36.264Z,94433.88
2023-03-24T11:35:32.155Z,94420.72
2023-03-24T11:38:41.171Z,94423.22
2023-03-24T11:41:28.166Z,94424.13
2023-03-24T11:44:37.214Z,94416.38
2023-03-24T11:47:31.250Z,94411.13
2023-03-24T11:50:21.253Z,94407.97
2023-03-24T11:53:30.230Z,94404.44
2023-03-24T11:56:16.679Z,94400.63
2023-03-24T11:59:30.261Z,94404.69
2023-03-24T12:02:22.292Z,94398.72
2023-03-24T12:05:31.199Z,94395.81
2023-03-24T12:08:40.248Z,94398.25
2023-03-24T12:11:33.224Z,94394.66
2023-03-24T12:14:16.233Z,94384.06
2023-03-24T12:17:21.236Z,94382.31
2023-03-24T12:20:16.374Z,94386.66
2023-03-24T12:23:47.246Z,94378.88
2023-03-24T12:26:45.255Z,94376.97
2023-03-24T12:30:09.197Z,94371.72
2023-03-24T12:33:45.285Z,94361.97
2023-03-24T12:36:31.885Z,94357.19
2023-03-24T12:39:23.308Z,94356.19
2023-03-24T12:42:12.711Z,94351.09
2023-03-24T12:45:14.240Z,94351.25
2023-03-24T12:48:15.517Z,94347.03
2023-03-24T12:51:20.229Z,94343.25
2023-03-24T12:54:03.861Z,94353.25
2023-03-24T12:57:06.324Z,94342.16
2023-03-24T13:00:19.334Z,94335.97
2023-03-24T13:03:38.230Z,94329.97
2023-03-24T13:06:22.447Z,94329.34
2023-03-24T13:09:18.237Z,94321.47
2023-03-24T13:11:57.431Z,94330.41
2023-03-24T13:15:14.237Z,94326.25
2023-03-24T13:18:07.066Z,94317.91
2023-03-24T13:21:18.246Z,94326.94
2023-03-24T13:24:15.580Z,94324.59
2023-03-24T13:27:13.246Z,94333.44
2023-03-24T13:30:02.396Z,94331.59
2023-03-24T13:32:58.306Z,94320.63
2023-03-24T13:35:48.233Z,94319.22
2023-03-24T13:38:45.279Z,94307.91
2023-03-24T13:41:31.270Z,94321.00
2023-03-24T13:44:32.239Z,94310.41
2023-03-24T13:47:07.427Z,94308.06
2023-03-24T13:50:20.476Z,94314.06
2023-03-24T13:53:10.974Z,94304.66
2023-03-24T13:56:02.296Z,94296.50
2023-03-24T13:59:12.385Z,94297.75
2023-03-24T14:02:24.531Z,94298.00
2023-03-24T14:05:34.417Z,94298.25
2023-03-24T14:08:41.269Z,94297.59
2023-03-24T14:11:49.306Z,94292.75
2023-03-24T14:14:46.149Z,94288.59
2023-03-24T14:17:33.454Z,94294.56
2023-03-24T14:20:10.668Z,94287.50
2023-03-24T14:22:58.266Z,94279.75
2023-03-24T14:25:37.353Z,94275.34
2023-03-24T14:28:34.258Z,94269.31
2023-03-24T14:31:42.391Z,94268.50
2023-03-24T14:34:32.267Z,94264.16
2023-03-24T14:37:09.530Z,94255.59
2023-03-24T14:39:57.381Z,94256.50
2023-03-24T14:42:46.338Z,94254.00
2023-03-24T14:45:33.508Z,94252.25
2023-03-24T14:48:16.266Z,94249.75
2023-03-24T14:51:17.319Z,94245.56
2023-03-24T14:54:05.351Z,94243.25
2023-03-24T14:56:47.154Z,94238.00
2023-03-24T14:59:38.356Z,94240.66
2023-03-24T15:02:30.450Z,94238.09
2023-03-24T15:05:27.395Z,94249.34
2023-03-24T15:08:21.347Z,94248.75
2023-03-24T15:11:12.327Z,94245.50
2023-03-24T15:13:59.397Z,94239.59
2023-03-24T15:16:46.339Z,94241.41
2023-03-24T15:19:29.411Z,94227.09
2023-03-24T15:22:20.398Z,94223.84
2023-03-24T15:25:03.317Z,94224.91
2023-03-24T15:28:04.334Z,94222.56
2023-03-24T15:30:51.546Z,94216.66
2023-03-24T15:33:26.180Z,94221.09
2023-03-24T15:36:21.317Z,94218.81
2023-03-24T15:39:00.196Z,94223.28
2023-03-24T15:41:47.383Z,94215.94
2023-03-24T15:44:26.472Z,94208.44
2023-03-24T15:47:29.716Z,94206.09
2023-03-24T15:50:07.610Z,94209.69
2023-03-24T15:53:07.910Z,94208.16
2023-03-24T15:55:43.461Z,94203.91
2023-03-24T15:58:35.360Z,94210.06
2023-03-24T16:01:09.742Z,94220.63
2023-03-24T16:03:57.475Z,94211.47
2023-03-24T16:06:44.377Z,94214.03
2023-03-24T16:09:38.401Z,94211.59
2023-03-24T16:12:25.358Z,94211.84
2023-03-24T16:14:58.618Z,94206.91
2023-03-24T16:17:45.430Z,94215.75
2023-03-24T16:20:28.433Z,94212.53
2023-03-24T16:23:20.154Z,94211.88
2023-03-24T16:25:53.440Z,94219.69
2023-03-24T16:28:42.367Z,94205.38
2023-03-24T16:31:25.558Z,94213.16
2023-03-24T16:34:14.133Z,94217.56
2023-03-24T16:36:48.451Z,94216.13
2023-03-24T16:39:37.398Z,94217.19
2023-03-24T16:42:10.654Z,94221.72
2023-03-24T16:44:58.342Z,94216.78
2023-03-24T16:47:31.620Z,94221.22
2023-03-24T16:50:47.559Z,94222.25
2023-03-24T16:53:30.389Z,94223.31
2023-03-24T16:56:28.516Z,94224.38
2023-03-24T16:59:15.409Z,94221.19
2023-03-24T17:01:58.404Z,94226.44
2023-03-24T17:04:53.399Z,94229.22
2023-03-24T17:07:47.653Z,94232.03
2023-03-24T17:10:42.383Z,94232.09
2023-03-24T17:13:32.390Z,94233.31
2023-03-24T17:16:05.496Z,94227.50
2023-03-24T17:18:52.395Z,94230.38
2023-03-24T17:21:26.458Z,94229.75
2023-03-24T17:24:20.383Z,94224.84
2023-03-24T17:27:14.386Z,94225.91
2023-03-24T17:30:01.377Z,94226.97
2023-03-24T17:32:36.579Z,94228.91
2023-03-24T17:35:26.407Z,94221.50
2023-03-24T17:37:59.496Z,94228.59
2023-03-24T17:40:48.829Z,94224.50
2023-03-24T17:43:22.475Z,94221.38
2023-03-24T17:46:10.448Z,94221.66
2023-03-24T17:48:50.384Z,94216.66
2023-03-24T17:51:44.386Z,94217.75
2023-03-24T17:54:32.390Z,94217.00
2023-03-24T17:57:05.820Z,94216.38
2023-03-24T17:59:53.156Z,94219.31
2023-03-24T18:02:33.404Z,94218.66
2023-03-24T18:05:27.398Z,94217.22
2023-03-24T18:08:14.386Z,94213.03
2023-03-24T18:10:47.857Z,94215.88
2023-03-24T18:13:35.369Z,94214.34
2023-03-24T18:16:19.942Z,94215.31
2023-03-24T18:19:08.428Z,94213.88
2023-03-24T18:21:48.430Z,94212.34
2023-03-24T18:24:42.437Z,94215.16
2023-03-24T18:27:38.467Z,94205.22
2023-03-24T18:30:25.379Z,94210.63
2023-03-24T18:33:01.467Z,94215.13
2023-03-24T18:35:48.421Z,94209.41
2023-03-24T18:38:22.504Z,94205.34
2023-03-24T18:41:14.451Z,94210.69
2023-03-24T18:43:48.312Z,94210.03
2023-03-24T18:46:35.441Z,94208.63
2023-03-24T18:49:08.567Z,94213.97
2023-03-24T18:51:49.393Z,94215.91
2023-03-24T18:54:29.403Z,94215.19
2023-03-24T18:57:09.427Z,94208.50
2023-03-24T18:59:56.463Z,94206.97
2023-03-24T19:02:36.481Z,94206.22
2023-03-24T19:05:30.430Z,94202.09
2023-03-24T19:08:21.401Z,94203.09
2023-03-24T19:10:55.584Z,94202.19
2023-03-24T19:13:42.440Z,94198.94
2023-03-24T19:16:18.798Z,94203.34
2023-03-24T19:19:08.769Z,94205.28
2023-03-24T19:21:42.868Z,94203.69
2023-03-24T19:24:36.437Z,94200.38
2023-03-24T19:27:30.430Z,94202.16
2023-03-24T19:30:18.453Z,94196.28
2023-03-24T19:32:52.833Z,94197.22
2023-03-24T19:35:40.479Z,94196.53
2023-03-24T19:38:14.206Z,94199.19
2023-03-24T19:41:00.442Z,94204.47
2023-03-24T19:43:34.683Z,94198.56
2023-03-24T19:46:23.453Z,94194.38
2023-03-24T19:48:56.826Z,94191.88
2023-03-24T19:51:43.420Z,94194.50
2023-03-24T19:54:23.412Z,94192.81
2023-03-24T19:57:17.443Z,94195.47
2023-03-24T20:00:12.458Z,94187.81
2023-03-24T20:02:59.540Z,94192.19
2023-03-24T20:05:39.440Z,94184.53
2023-03-24T20:08:27.437Z,94185.50
2023-03-24T20:11:07.434Z,94185.63
2023-03-24T20:14:01.431Z,94192.59
2023-03-24T20:16:48.454Z,94189.25
2023-03-24T20:19:21.548Z,94186.81
2023-03-24T20:22:08.500Z,94186.88
2023-03-24T20:24:42.760Z,94184.38
2023-03-24T20:27:29.462Z,94189.59
2023-03-24T20:30:03.414Z,94193.13
2023-03-24T20:32:50.501Z,94189.78
2023-03-24T20:35:23.559Z,94183.00
2023-03-24T20:38:10.441Z,94190.72
2023-03-24T20:40:43.578Z,94190.72
2023-03-24T20:43:30.468Z,94196.78
2023-03-24T20:46:04.684Z,94203.66
2023-03-24T20:48:51.481Z,94200.31
2023-03-24T20:51:24.648Z,94200.44
2023-03-24T20:54:12.473Z,94198.81
2023-03-24T20:56:52.545Z,94202.31
2023-03-24T20:59:39.510Z,94205.06
2023-03-24T21:02:13.676Z,94206.84
2023-03-24T21:05:00.478Z,94196.72
2023-03-24T21:07:34.413Z,94200.28
2023-03-24T21:10:21.467Z,94193.59
2023-03-24T21:13:01.491Z,94197.19
2023-03-24T21:15:50.633Z,94197.19
2023-03-24T21:18:31.436Z,94192.97
2023-03-24T21:21:19.620Z,94188.00
2023-03-24T21:24:02.468Z,94194.09
2023-03-24T21:26:57.483Z,94189.13
2023-03-24T21:29:51.494Z,94191.81
2023-03-24T21:32:45.483Z,94182.53
2023-03-24T21:35:39.472Z,94189.41
2023-03-24T21:38:26.485Z,94188.59
2023-03-24T21:41:06.600Z,94189.63
2023-03-24T21:43:57.480Z,94188.03
2023-03-24T21:46:32.122Z,94188.19
2023-03-24T21:49:19.492Z,94185.75
2023-03-24T21:51:55.123Z,94185.03
2023-03-24T21:54:41.485Z,94185.22
2023-03-24T21:57:21.492Z,94182.75
2023-03-24T22:00:20.496Z,94189.63
2023-03-24T22:03:08.565Z,94189.78
2023-03-24T22:05:45.991Z,94186.44
2023-03-24T22:08:37.483Z,94195.91
2023-03-24T22:11:18.565Z,94196.88
2023-03-24T22:14:05.508Z,94205.50
2023-03-24T22:16:45.555Z,94198.78
2023-03-24T22:19:39.512Z,94191.19
2023-03-24T22:22:33.507Z,94193.81
2023-03-24T22:25:30.519Z,94190.50
2023-03-24T22:28:17.505Z,94198.19
2023-03-24T22:30:57.505Z,94193.19
2023-03-24T22:33:44.540Z,94182.25
2023-03-24T22:36:18.683Z,94180.66
2023-03-24T22:39:05.503Z,94183.25
2023-03-24T22:41:45.505Z,94188.31
2023-03-24T22:44:32.537Z,94186.69
2023-03-24T22:47:13.505Z,94188.38
2023-03-24T22:50:00.512Z,94186.75
2023-03-24T22:52:40.511Z,94193.59
2023-03-24T22:55:34.498Z,94197.03
2023-03-24T22:58:21.514Z,94189.38
2023-03-24T23:00:56.606Z,94193.63
2023-03-24T23:03:43.513Z,94185.16
2023-03-24T23:06:17.664Z,94180.88
2023-03-24T23:09:06.529Z,94189.47
2023-03-24T23:11:39.621Z,94185.31
2023-03-24T23:14:26.525Z,94182.91
2023-03-24T23:16:59.758Z,94180.41
2023-03-24T23:19:46.584Z,94172.00
2023-03-24T23:22:19.870Z,94179.72
2023-03-24T23:25:13.524Z,94172.97
2023-03-24T23:28:07.511Z,94167.09
2023-03-24T23:30:54.534Z,94156.03
2023-03-24T23:33:27.721Z,94162.00
2023-03-24T23:36:17.116Z,94146.75
2023-03-24T23:38:54.581Z,94139.91
2023-03-24T23:41:41.580Z,94130.50
2023-03-24T23:44:19.568Z,94115.16
2023-03-24T23:47:06.551Z,94119.50
2023-03-24T23:49:46.550Z,94121.25
2023-03-24T23:52:33.558Z,94123.88
2023-03-24T23:55:06.673Z,94117.91
2023-03-24T23:57:55.548Z,94108.63
